Identifiez vous afin de poster une observation
 • Tableaux GEFS   

Tableaux GEFS de Températures 500hPa (°C)

Run GEFS du 25/03/2019 06Z - Choix du run : 00 - 06 - 12 - 18 Sauver tableau : Conserver cette image

Paramètres : [ Temp. 850hPa ] - [ Temp. 500hPa ] - [ Pression ] - [ Précip. ] - [ Temp. 2m ] - [ Z500 ] - [ CAPE ] -
[ Vent+Direction 10m ] - [ Vent 10m ] - [ Vent Rafales 10m ] - [ Vent+Direction 850hPa ] - [ Vent 850hPa ] - [ Iso 0 ] -
Tri des valeurs : [ Par scénario ] - [ Ascendant ] - [ Descendant ]

Localisation : 42.7N 23.3E

DateEch.01234567891011121314151617181920GFS
2019-03-25 06Z0-20.3-20.3-20.1-20.5-20.5-20.5-20.3-20.3-20.1-20.3-20.3-20.3-20.1-20.3-20.3-20.1-20.1-20.1-20.3-20.3-20.1-20.2
2019-03-25 09Z3-20.1-20.3-19.8-20.3-20.3-20.3-20.1-20.1-20.1-20-20.1-20-20-20.1-20.1-20.1-20.1-20.1-20.1-20.1-20.1-20
2019-03-25 12Z6-20.1-20.3-19.8-20.3-20.3-20.3-20.1-20.3-20.1-19.8-20.1-20-19.8-20-20.1-20.1-20.1-20.1-20.1-20.1-20-19.9
2019-03-25 15Z9-20.3-20.3-20.1-20.5-20.5-20.3-20.3-20.3-20.1-20.1-20.3-20.1-20-20.1-20.3-20.1-20.3-20.3-20.3-20.3-20.1-20.1
2019-03-25 18Z12-20.8-21-20.6-20.8-20.8-20.8-21.1-20.6-20.6-20.6-20.8-20.8-20.6-20.6-20.8-20.6-21-20.8-20.6-20.8-20.5-20.7
2019-03-25 21Z15-21.1-21.5-21.1-21.3-21.3-21.3-21.6-21.1-21-21.1-21.1-21.1-21.1-21.3-21.1-20.8-21.5-21.1-21.1-21.3-20.8-21.3
2019-03-26 00Z18-22.1-22.3-21.8-22-22.3-22.1-22.3-22-22-22.1-22.1-22-22-22.1-22.1-21.6-22.1-22.1-22-22.3-21.6-22.2
2019-03-26 03Z21-22.5-22.6-22.1-22.1-22.8-22.6-22.8-22.3-22.4-22.8-22.6-22.3-22.5-22.5-22.5-22.3-22.5-22.8-22.3-22.8-21.8-22.3
2019-03-26 06Z24-22.8-23-22.6-22.6-23.1-23-23.1-22.6-22.8-23.1-22.8-22.6-22.8-22.8-22.8-22.6-22.8-23.3-22.6-23-22.3-23
2019-03-26 09Z27-23.8-23.8-23.1-23.6-24.1-23.8-24.1-23.6-23.8-23.8-24-23.6-23.6-23.6-23.6-23.6-23.6-24.3-23.6-23.8-23.1-23.6
2019-03-26 12Z30-24.1-24.1-23.8-24.1-24.3-24.5-24.3-24.1-24.1-24.1-24.1-24.1-24-24.1-24-24-24-24.5-24-23.8-24-23.9
2019-03-26 15Z33-23.8-23.8-23.8-23.8-24-24.1-24-23.8-23.8-23.8-23.6-23.8-23.6-23.6-23.6-23.5-23.8-24.1-23.6-23.3-23.6-23.4
2019-03-26 18Z36-23.8-24-23.5-23.8-24.1-24.1-24.1-23.8-23.8-24.1-24.1-24.1-23.8-24-23.6-23.8-23.8-23.8-23.8-23.8-23.8-23.9
2019-03-26 21Z39-24.3-24.3-23.8-24.3-24.3-24.3-24.3-24.3-24.1-24.5-24.3-24.3-24.1-24.3-24.3-24.1-24.3-24.3-24.1-24.5-24.1-24.2
2019-03-27 00Z42-24.6-24.3-24.3-24.5-24.3-25-24.6-24.5-24.4-24.6-24.8-24.5-24.6-24.6-24.6-24.5-24.6-24.5-24.3-24.8-24.3-24.6
2019-03-27 03Z45-24.8-24.8-24.6-25-24.8-25.1-25-24.8-24.6-24.8-25-24.8-24.8-24.8-24.6-24.6-24.8-24.8-24.6-24.8-24.5-24.8
2019-03-27 06Z48-25-25-24.8-25-25.1-25.3-25.1-24.8-24.8-25-25.1-25.1-25.1-25-24.8-24.8-24.8-25.1-24.8-25.1-24.6-24.9
2019-03-27 09Z51-24.8-24.8-24.8-24.8-25-25.3-25.3-24.8-24.8-24.8-25.1-25.1-25.1-24.8-24.6-24.8-24.8-25.1-25-24.8-24.5-25
2019-03-27 12Z54-24.8-24.6-25-25-24.8-25.5-25.1-24.8-24.8-24.6-25-25.1-24.8-24.8-24.6-24.6-24.6-25-25-24.8-24.8-24.7
2019-03-27 15Z57-24.8-24.8-25.1-25.1-25-25.1-24.8-25.1-24.8-25.1-25.5-24.6-25-24.8-24.8-25-24.5-24.8-24.8-24.8-24.8-25
2019-03-27 18Z60-25.3-25.1-25.5-25.3-25.5-24.8-25-24.8-25.1-25.3-25.5-25.5-25.3-25.1-25.1-25.8-25-25.6-25.3-25.1-25.1-25.4
2019-03-27 21Z63-25.3-25.1-25.8-25.6-25.5-25.3-25.3-24.8-25.5-25.5-25.6-25.6-25.5-25.5-25.1-26.1-25.1-25.1-25.3-25.3-25.6-25.3
2019-03-28 00Z66-25.5-25.3-25.8-26.1-25.8-25.1-25.3-25.1-25.8-25.6-26.3-25.6-25.8-25.1-25.1-26.3-24.8-24.8-25.3-25.6-25.3-25.3
2019-03-28 03Z69-25.6-25.6-25.8-26.5-26-24.6-25.3-24.8-26.3-25.6-26.6-25.6-25.8-25.1-25-26.6-25.5-25.1-25.6-25.7-25.6-25.4
2019-03-28 06Z72-25.6-26.1-25.3-27-25.8-24.5-25.1-25-26.3-25.6-26.3-25.8-25.8-25.3-24.8-26.8-25.8-25-25.8-26.1-25.8-25.4
2019-03-28 09Z75-25.8-26.6-25.5-27-25.6-23.8-24.6-24.6-26.3-25.8-26-25.8-25.9-25.1-24.6-26.6-26-25.1-26-26.1-25.6-25.5
2019-03-28 12Z78-25.6-27-25-26.6-25.6-24.1-24.3-24.1-26.5-25.8-25.5-25.6-25.6-25-24.3-26.3-25.8-25.3-26.3-25.8-25.3-25
2019-03-28 15Z81-25.3-26.6-24.3-25-25.3-23.8-24.1-23.6-26.1-25.3-25.3-24.8-25.3-24.8-24.3-26-25.6-25-26.6-25.6-25.3-24.4
2019-03-28 18Z84-25-26-24-24.8-25.1-23.8-24.1-23.3-25.1-25.1-25.1-24.6-25.5-24.6-24.5-25.8-25.3-24.8-26.8-25.8-25.3-24.2
2019-03-28 21Z87-25.1-26.1-23.8-25.6-24.8-23.6-24.6-23.8-25.6-25.8-25.3-24.8-25.8-24.6-25-26.1-25.3-24.8-27-26-25.3-25
2019-03-29 00Z90-25.6-25.8-23.8-25.6-25.1-23.6-25.3-24.1-25.6-26.8-26.1-24.6-26.1-24.8-25-27.1-25.3-25.5-27.1-26-25.1-25.8
2019-03-29 03Z93-26-25.6-24.5-25.1-25-23.8-26-24.3-25.6-27.2-26.5-25.1-26.6-25-24.8-28-25.3-26.1-26.8-26-24.8-25.9
2019-03-29 06Z96-26.1-25.8-25.1-24.1-25.6-24.3-26.5-24.8-25.3-26.1-26.8-25.8-26-25.1-24.8-26.8-25.1-26.4-26.8-25.8-25.1-26.2
2019-03-29 09Z99-25.6-25.3-25.5-22.5-25.6-24.3-27.3-24.8-25.1-26-27.3-25.8-25.5-24.8-24.6-26.8-24.8-25.3-26.6-25.8-25.5-26.1
2019-03-29 12Z102-25-24.8-26.1-22.6-25.5-24.1-26.8-24.1-24.5-25.3-27.1-25.6-24.6-24.8-24.3-26.3-24.3-24.6-26.1-25.5-25.1-25.8
2019-03-29 15Z105-24.5-24.5-26.1-22.1-24.3-23.8-25.1-23.5-24.1-24.3-26.3-25.3-24-24.8-24.1-25.1-24.1-23.8-25.8-25.5-24.6-25.1
2019-03-29 18Z108-23.8-23.1-26.3-20.5-23.8-23.8-24.5-23.1-23.3-24.1-26.1-25-23.6-25.1-23.1-24.6-23.6-23.1-25.3-25.1-24.1-24.2
2019-03-29 21Z111-23.6-23.2-26.1-20.8-23.3-23.8-24.5-23.3-22.6-24.3-26-24.8-23.6-25.1-22.1-24.1-23.3-22.8-24.6-25.1-23.6-23.7
2019-03-30 00Z114-23.3-23.3-26-20.5-23.1-24.1-24.1-23.6-21.8-24.3-25.1-24.6-23.8-25.1-23.1-23.6-23.6-22.6-24.1-25.6-22.8-23.1
2019-03-30 03Z117-23.3-23.6-26.1-20.5-23.6-24.1-24-23.6-22-24.8-25-24.1-23.8-24.6-24.1-23.8-22.8-22.3-24-26.6-22.8-23.1
2019-03-30 06Z120-22.8-23.6-24.8-22-23.5-23.8-24.5-23.6-22.8-24.6-24.5-24.5-23.1-24.5-24.6-24.1-22.1-22.6-24.1-27-22.3-22.6
2019-03-30 09Z123-21.8-24.1-23.8-22.8-22-23.1-23.5-23.6-23.6-23.3-23.3-24.6-22.8-24.3-23.3-24.1-22.1-22.5-24.3-25.3-21-22.6
2019-03-30 12Z126-21.3-22.8-23.6-22.5-21.1-22.5-22.8-23.5-23.6-22.6-23.3-23.5-22.6-24.3-21.6-23.6-21.8-21.3-24.3-24-20.1-22.6
2019-03-30 15Z129-21.6-22.1-23.8-21-20.8-22-23.1-23-22.6-21.8-23.3-23.1-22.6-24.6-21.1-23-21.3-20.1-24.1-23.1-19.6-22.2
2019-03-30 18Z132-22.3-21.8-24.3-20.3-20.8-22-23.6-23.1-21.3-21.1-23.1-22.6-22.8-25-21.1-22.5-20.6-19.6-23.6-23.1-20.3-22.2
2019-03-30 21Z135-22.8-21.3-25.3-20.3-21.3-21.8-24-22.8-20-20.8-23.3-22.3-22.8-24.3-21-22.5-20.8-19.6-23.1-23.1-21.3-21.9
2019-03-31 00Z138-23-21.6-25.3-20.7-21.1-21.3-23.3-22.3-20.1-20.3-23.3-21.8-22.6-22.1-21.1-23.1-21.1-20.3-23.6-22.8-21.6-21.7
2019-03-31 03Z141-23-21.6-24.1-21-21-21.6-22.5-22.6-20.6-19.8-23.1-21.8-22.5-21.5-21.1-23.5-21.8-20.8-23.3-22.8-22.5-21.8
2019-03-31 06Z144-22.3-21.8-23.1-20.6-20.8-21.6-21.8-22.3-20.3-20.1-22.6-22.1-22.6-21.6-20.8-23-21.8-21.3-22.3-22.5-23.3-21.6
2019-03-31 09Z147-21.3-21.8-22.1-20.5-20.8-21.3-21.3-22.3-20.3-20.6-21.8-22.5-22.3-20.8-20.1-22.1-21.6-21.3-22.1-21.5-23.8-21.6
2019-03-31 12Z150-20.8-22-22.1-20.3-21-21.1-21.3-22.6-20.8-20.8-22-22.3-21.8-20.1-19.6-22-21.3-21.1-21.8-20.6-24.3-21.9
2019-03-31 15Z153-20.8-22-22.3-20.1-21.1-21-21.6-22.6-20.6-20.6-21.8-22.1-21.8-19.6-19.6-22.3-21.1-20.8-21.5-20.1-24.3-21.9
2019-03-31 18Z156-20.8-22-22.6-20.1-21-21.1-22.6-23-20.6-20.5-22-22.3-21.6-19.6-18.8-22.6-21.1-20.6-21.5-19.8-24.1-21.8
2019-03-31 21Z159-20.6-22.1-22.1-20.1-21.1-21.5-22.8-23-20.8-20-22.1-22.8-21.8-20-18.6-23-21.1-20.6-21.5-20.3-24.1-22.1
2019-04-01 00Z162-20.5-22.6-22-20.3-21.3-21.8-23.3-23.1-20.6-20.1-22.1-23-21.3-20.3-18.6-22.8-21.3-21-21.6-19.8-24.3-22.3
2019-04-01 03Z165-20.8-23-22.3-20.3-21.3-22.3-23.8-23.3-20.3-20.8-22.8-23.3-21.5-20.5-19-22.8-21.6-21-21.6-19.5-24.8-22.2
2019-04-01 06Z168-21.1-23-22.6-20.6-21.6-23-23.8-23.5-21.1-21.8-23.1-23.3-21.6-20.8-19.8-22.3-21.6-20.6-21.8-19.5-25-22.6
2019-04-01 09Z171-21.5-22.6-22.3-21-21.3-23.6-23.8-24-21.6-22.6-23.3-23.3-21.5-21-20.3-23-21.6-20.6-21.8-19.8-25.3-22.8
2019-04-01 12Z174-21.5-24.3-22.5-21.3-21-23.8-23.8-24.3-21-23.6-23.8-23.3-21.5-21.3-21.1-23.1-22.1-20.3-22.1-19.8-25.8-22.7
2019-04-01 15Z177-21.3-24.8-22.1-21.8-20.3-24.1-24-24.3-21.6-24.8-24.3-23.3-21.6-21.6-21-23.1-22.3-20.3-22.3-19.6-26.5-22.9
2019-04-01 18Z180-21.1-25.6-22.1-22.5-20.1-24.5-24.1-24.6-22.8-26.1-24.3-23.6-22.1-21.6-20.6-23.6-22.8-20.5-22.5-19.6-26.8-23.3
2019-04-01 21Z183-21.5-25.8-22-23.8-20.3-25.1-24.3-25.1-24.3-26.8-24.6-23.5-22.3-21.3-20.8-24.5-23.1-20.6-22.8-20.5-26.8-24
2019-04-02 00Z186-21.3-26.1-21.8-25.1-21.6-26.1-24.1-25.8-25.6-28-24.8-23.6-22.8-22.1-21.3-25.1-23.6-22.1-23.3-21-26.8-24
2019-04-02 03Z189-21.8-26.6-21.8-24.8-22-26.6-24.6-26.3-25.5-28.1-24.8-23.6-22.8-22.8-21.6-25.6-24.3-23.1-23.5-21.1-26.8-24.5
2019-04-02 06Z192-21.8-27.1-21.6-24-21.6-26.8-24.3-26-26.1-29.3-24.8-24.1-23.1-23.5-21.3-26.9-24.5-24-24.1-21.5-27.1-25
2019-04-02 12Z198-22.5-26.6-21.3-22.5-19.8-26.3-24.5-25.8-26-31.1-24.6-23.8-23-23.6-21.5-27.3-24.3-24.8-24.3-22.1-26.6-24.9
2019-04-02 18Z204-23.1-27.1-21.6-22.3-18.1-25.8-23.8-24.6-24.6-32.8-24.1-23.8-22.1-24.1-20.6-28-24.6-25.1-24.8-22-26.6-24.8
2019-04-03 00Z210-23.5-27-21.6-22.6-19.1-25.8-22.1-23.3-25.3-33.1-24.8-23.6-21.5-24.5-20.5-29.8-25.1-26.3-25.5-22.3-26.5-25
2019-04-03 06Z216-23.8-26.5-22.3-23.1-19.1-25.8-20.6-22.6-25.3-31-25-23.3-21.6-25.3-20.8-32.5-25.5-27.6-26.5-22.5-26.3-25.5
2019-04-03 12Z222-23.5-27-22.6-23.1-18.6-25.6-18.8-22-25-29.5-24.8-23-21.8-25.6-19.6-32.8-25.8-27.8-25.6-22.3-26.3-25.7
2019-04-03 18Z228-23.3-27.1-23.3-21.3-18.8-26.3-18.8-22.5-31.1-29.5-24.5-23.3-22.6-25.1-20.6-31.1-25.6-27.8-25.8-22.6-27.1-26.1
2019-04-04 00Z234-23.6-27.5-23.6-20.8-20-26.1-19.3-22.6-30.8-28.6-24.8-22.5-23.5-25.3-20.6-28.6-25.6-27.3-25-23.6-27.8-25.9
2019-04-04 06Z240-24.1-27-23.6-20.1-21-25.8-19.5-23.3-29.6-26.8-25.1-22.6-24.5-26.1-20.5-28.1-24-27.3-24.5-23.6-28.3-26.8
2019-04-04 12Z246-24.1-26.1-23-19.1-20.6-25.8-19.5-24.3-29.8-26.6-24.3-21.8-24.6-26.1-19.5-28.1-19.5-27.1-23.3-22.5-27.8
2019-04-04 18Z252-24.3-26.6-22.1-18.8-21.6-26.5-19.3-23.8-29.8-26.6-24.8-21.5-24.1-26.6-17-28.1-20-26.6-22.6-22.1-27.8-28.6
2019-04-05 00Z258-24.1-27.1-21.6-18.8-22.5-26.3-19.6-22.1-29.6-27.3-25.6-20.6-23.6-25.5-17.6-28.3-22.5-24.8-22.8-20.8-27
2019-04-05 06Z264-23.8-27.8-20.3-19-24.3-26.8-20.1-20.8-28.8-27.3-26.8-21.1-23.3-23.3-18.1-29.1-27.3-24.1-23.3-21.8-29.1-32.7
2019-04-05 12Z270-23.1-27.6-19.8-20.1-24.8-26.1-20.8-20.3-26.5-26.6-26.1-20.1-23.6-21.8-15.6-29.8-30-23.8-23.6-21.3-30.3
2019-04-05 18Z276-21.6-28-19.6-21-24.5-25.1-20.1-19.6-24.1-26.3-26.6-21.8-23.3-20-14.7-29.3-32.5-23.8-23.3-20.6-30.6-35.6
2019-04-06 00Z282-21.3-27.8-19.1-21.6-24.5-25.3-21.1-20-21.1-26.3-26.3-21.6-23.1-20.8-13.3-28.3-34.8-24.6-23.6-21.3-29.6
2019-04-06 06Z288-22.1-27.8-18.6-21.6-24.5-25-22.1-20.6-20.8-25.8-27.3-20.1-23.3-21-15.2-28.3-31.5-24.8-23.1-21.1-29.6-36.2
2019-04-06 12Z294-22.5-29-18.1-20.8-24.1-22.3-21.6-22-19.5-24.8-28-21.6-24-22-16.5-28.2-26.6-26.3-22.3-21.1-28.3
2019-04-06 18Z300-23-30.6-17.5-20.5-24.3-21.3-21.6-23.1-18.8-23.6-29.1-19.1-23.1-22.3-16-27.3-21.8-27.6-22.6-20.3-28.1-36.9
2019-04-07 00Z306-23.1-30.1-17-20.3-24.3-20.3-21.8-23.3-19.1-23.3-29.1-18.6-23.8-21.6-17-26.1-21.1-28.3-23.1-19.6-28.6
2019-04-07 06Z312-22.8-27.1-17-20.3-24.5-19.3-23-23.6-20-22.8-28.1-21.1-25.5-20.6-16.7-25.1-21.1-30.8-23.6-19.3-28.8-31.1
2019-04-07 12Z318-22.1-26.1-16.6-19.6-24.1-19.3-23.3-24.1-20.6-22.8-27.3-21-24.3-19.8-18.1-23.8-21.8-29.5-23.6-18.1-28.8
2019-04-07 18Z324-21.1-26.6-16.8-20.3-24.1-18.8-23-24.5-20-22.8-26.3-22.6-22.1-18.8-18.8-22.8-22.5-34.8-23.8-17.3-28.5-30.9
2019-04-08 00Z330-19.8-26.8-17-21.1-23.6-18.8-22.1-27.3-20.8-23-24.8-23.8-21.3-18.6-20.3-22.6-24.3-38-24.3-16-28.3
2019-04-08 06Z336-18.1-27.1-15.2-22-23.6-19-20.6-29.3-21.1-22.8-23.1-24.3-22.1-19.5-22.6-22.6-25.3-35-24.8-19.6-28.1-29.6
2019-04-08 12Z342-16.2-27-15.2-22.1-23.6-18.6-20.1-28.6-22.1-22.5-21.6-24.6-21.8-19.8-22.8-22.5-25.8-29.1-24.8-21.6-27.6
2019-04-08 18Z348-16.7-27.1-15.7-22.1-23.5-18.3-20.5-29.3-23.3-22.1-19.1-26.1-21.6-20.1-23.1-22.8-26.3-26.8-24.8-19.8-27.3-26.6
2019-04-09 00Z354-17.5-26.5-15-22.1-23.3-18-21.3-29.3-25.1-21.6-18.1-27.3-22.8-20.3-23.8-23.8-28.5-25.8-25.5-19.6-26.6
2019-04-09 06Z360-20.1-26.1-12.5-21.8-23.3-18.3-21.5-28.1-26.8-21.6-19-27.6-23.6-20.3-24.3-24.3-26.8-24.8-25.1-19.8-26.3-28
2019-04-09 12Z366-21.3-25.8-11.7-21.1-23.1-18.3-21.3-27.1-26.3-21.3-18.5-27.6-24.6-20.1-23.8-24.6-31.3-24.1-24.8-19.1-25.3
2019-04-09 18Z372-22.3-24.3-12-20.6-22.8-18.1-21.3-26.6-25.1-21.3-17.8-27.5-25.8-19.5-23-24.6-35.3-23.6-24.5-19.3-24.6-26.7
2019-04-10 00Z378-21.6-22.3-12.3-20.3-23.3-20.5-21.8-26.5-23.6-21.8-17.1-28.1-27.1-20.1-21.8-25.1-36.5-24.3-23.8-20.1-23.6
2019-04-10 06Z384-21.3-21.3-12.7-20.5-23.8-22-21.8-25.6-21.6-22.1-18.1-28.1-28.1-20.8-21.8-23.6-37.1-23.3-23.5-20.3-22.6-21.2

Retour à la carte

meteociel.fr™ | © 2004 - 2019 | Forums Météo | Prévi Paris | Liens météo | Média - Meteociel | Mentions légales | Contact
En poursuivant votre navigation sur Meteociel, vous acceptez l'utilisation des cookies. Ils assurent le bon fonctionnement de nos services. [ En savoir plus ] [ OK ]